Muscadine, AL (36269)

7:41 PM CST on December 19, 2014 (GMT -0600)
APRSWXNET Heflin AL US | Change Station
CLOSE
Current Station
Personal Weather Station
Location: Heflin, AL
Elevation: 1040 ft
Nearby Weather Stations

Elev 1040 ft 33.65 °N, 85.58 °W | Updated 41 minutes ago

Overcast
Overcast
43 °F
Feels Like 43 °F
N
0
Wind Variable Wind from SSW
Gusts 0.0 mph

Today
High -- | Low -- °F
--% Chance of Precip.
Yesterday
High -- | Low -- °F
Precip. -- in
6:41 AM 4:36 PM
Waning Crescent, 5% visible
Pressure 30.19 in
Visibility 10.0 miles
Clouds Scattered Clouds 7500 ft
Overcast 9000 ft
Windchill 43 °F
Dew Point 38 °F
Humidity 81%
Rainfall 0.14 in
Snow Depth Not available.
UV 0 out of 12
Pollen 1.70 out of 12
Air Quality Not available.
Flu Activity Not available.
METAR KCTJ 200135Z AUTO 34003KT 10SM SCT075 OVC090 07/01 A3019 RMK AO2

More Conditions Fewer Conditions

Pressure 30.19 in
Visibility 10.0 miles
Clouds Scattered Clouds 7500 ft
Overcast 9000 ft
Windchill 43 °F
Dew Point 38 °F
Humidity 81%
Rainfall 0.14 in
Snow Depth Not available.
UV 0 out of 12
Pollen 1.70 out of 12
Air Quality Not available.
Flu Activity Not available.
METAR KCTJ 200135Z AUTO 34003KT 10SM SCT075 OVC090 07/01 A3019 RMK AO2

More Conditions Fewer Conditions

10-Day Weather Forecast

Almanac

Astronomy

Dec. 19, 2014 Rise Set
Actual Time
Civil Twilight
Nautical Twilight
Astronomical Twilight
Moon
Length of Visible Light
Length of Day
Tomorrow will be .
, % of the Moon is Illuminated

Today's Extremes

State Highs State Lows

Community

WunderPhotos

Upload Photos

1,779,102 photos uploaded!

WunderBlogs® & News

Nearby

Air Quality

  Air Quality AQ Index Pollutant
Not available.

Snow Depth

Station Depth Elevation

Earthquake Activity

City Distance Mag. Time & Date
Minimum magnitude displayed is 2.5.

Coastal Water Temperatures

Place Temperature

Nearby Weather Stations